sensor_id;sensor_type;location;lat;lon;timestamp;temperature;humidity
20171;DHT22;10245;51.344;6.620;2022-08-19T00:00:46;22.10;86.30
20171;DHT22;10245;51.344;6.620;2022-08-19T00:03:13;22.20;86.30
20171;DHT22;10245;51.344;6.620;2022-08-19T00:05:36;22.00;87.00
20171;DHT22;10245;51.344;6.620;2022-08-19T00:08:00;22.00;87.30
20171;DHT22;10245;51.344;6.620;2022-08-19T00:10:30;22.00;87.00
20171;DHT22;10245;51.344;6.620;2022-08-19T00:12:54;21.90;87.30
20171;DHT22;10245;51.344;6.620;2022-08-19T00:15:20;22.00;87.00
20171;DHT22;10245;51.344;6.620;2022-08-19T00:17:45;22.00;87.70
20171;DHT22;10245;51.344;6.620;2022-08-19T00:20:13;21.90;87.70
20171;DHT22;10245;51.344;6.620;2022-08-19T00:22:39;21.90;87.60
20171;DHT22;10245;51.344;6.620;2022-08-19T00:25:03;21.80;87.90
20171;DHT22;10245;51.344;6.620;2022-08-19T00:27:28;21.80;87.40
20171;DHT22;10245;51.344;6.620;2022-08-19T00:29:52;21.90;87.20
20171;DHT22;10245;51.344;6.620;2022-08-19T00:32:15;21.90;87.10
20171;DHT22;10245;51.344;6.620;2022-08-19T00:34:40;21.90;87.00
20171;DHT22;10245;51.344;6.620;2022-08-19T00:37:05;21.90;87.10
20171;DHT22;10245;51.344;6.620;2022-08-19T00:39:29;21.90;87.10
20171;DHT22;10245;51.344;6.620;2022-08-19T00:41:53;21.80;87.10
20171;DHT22;10245;51.344;6.620;2022-08-19T00:44:19;21.80;88.10
20171;DHT22;10245;51.344;6.620;2022-08-19T00:46:50;21.70;88.00
20171;DHT22;10245;51.344;6.620;2022-08-19T00:49:21;21.60;87.90
20171;DHT22;10245;51.344;6.620;2022-08-19T00:51:53;21.60;88.30
20171;DHT22;10245;51.344;6.620;2022-08-19T00:54:23;21.60;88.10
20171;DHT22;10245;51.344;6.620;2022-08-19T00:56:52;21.50;88.00
20171;DHT22;10245;51.344;6.620;2022-08-19T00:59:21;21.60;88.60
20171;DHT22;10245;51.344;6.620;2022-08-19T01:02:06;21.60;87.80
20171;DHT22;10245;51.344;6.620;2022-08-19T01:04:31;21.60;87.80
20171;DHT22;10245;51.344;6.620;2022-08-19T01:06:55;21.70;87.80
20171;DHT22;10245;51.344;6.620;2022-08-19T01:09:19;21.70;87.90
20171;DHT22;10245;51.344;6.620;2022-08-19T01:11:45;21.60;87.40
20171;DHT22;10245;51.344;6.620;2022-08-19T01:14:10;21.60;88.00
20171;DHT22;10245;51.344;6.620;2022-08-19T01:16:35;21.40;88.80
20171;DHT22;10245;51.344;6.620;2022-08-19T01:19:01;21.40;89.00
20171;DHT22;10245;51.344;6.620;2022-08-19T01:21:27;21.40;88.80
20171;DHT22;10245;51.344;6.620;2022-08-19T01:23:56;21.50;88.50
20171;DHT22;10245;51.344;6.620;2022-08-19T01:26:22;21.40;88.40
20171;DHT22;10245;51.344;6.620;2022-08-19T01:28:48;21.30;88.60
20171;DHT22;10245;51.344;6.620;2022-08-19T01:31:16;21.40;88.70
20171;DHT22;10245;51.344;6.620;2022-08-19T01:33:48;21.30;89.10
20171;DHT22;10245;51.344;6.620;2022-08-19T01:36:14;21.40;88.70
20171;DHT22;10245;51.344;6.620;2022-08-19T01:38:48;21.30;88.80
20171;DHT22;10245;51.344;6.620;2022-08-19T01:41:13;21.20;88.90
20171;DHT22;10245;51.344;6.620;2022-08-19T01:43:38;21.30;88.70
20171;DHT22;10245;51.344;6.620;2022-08-19T01:46:22;21.20;88.90
20171;DHT22;10245;51.344;6.620;2022-08-19T01:48:46;21.20;89.50
20171;DHT22;10245;51.344;6.620;2022-08-19T01:51:11;21.20;89.70
20171;DHT22;10245;51.344;6.620;2022-08-19T01:53:35;21.30;88.60
20171;DHT22;10245;51.344;6.620;2022-08-19T01:55:59;21.30;88.60
20171;DHT22;10245;51.344;6.620;2022-08-19T01:58:27;21.40;88.30
20171;DHT22;10245;51.344;6.620;2022-08-19T02:00:53;21.20;88.80
20171;DHT22;10245;51.344;6.620;2022-08-19T02:03:17;21.10;88.70
20171;DHT22;10245;51.344;6.620;2022-08-19T02:05:41;21.20;88.80
20171;DHT22;10245;51.344;6.620;2022-08-19T02:08:06;21.20;88.70
20171;DHT22;10245;51.344;6.620;2022-08-19T02:10:31;21.00;89.10
20171;DHT22;10245;51.344;6.620;2022-08-19T02:12:54;21.10;89.10
20171;DHT22;10245;51.344;6.620;2022-08-19T02:15:20;21.10;89.00
20171;DHT22;10245;51.344;6.620;2022-08-19T02:17:44;21.00;89.10
20171;DHT22;10245;51.344;6.620;2022-08-19T02:20:09;21.00;89.40
20171;DHT22;10245;51.344;6.620;2022-08-19T02:22:35;21.00;89.80
20171;DHT22;10245;51.344;6.620;2022-08-19T02:24:58;20.90;90.00
20171;DHT22;10245;51.344;6.620;2022-08-19T02:27:23;21.00;89.80
20171;DHT22;10245;51.344;6.620;2022-08-19T02:29:48;21.00;89.80
20171;DHT22;10245;51.344;6.620;2022-08-19T02:32:13;21.00;89.50
20171;DHT22;10245;51.344;6.620;2022-08-19T02:34:36;21.00;89.50
20171;DHT22;10245;51.344;6.620;2022-08-19T02:37:00;21.00;89.70
20171;DHT22;10245;51.344;6.620;2022-08-19T02:39:24;21.00;89.50
20171;DHT22;10245;51.344;6.620;2022-08-19T02:41:48;20.80;91.20
20171;DHT22;10245;51.344;6.620;2022-08-19T02:44:17;20.90;90.30
20171;DHT22;10245;51.344;6.620;2022-08-19T02:46:52;20.90;91.90
20171;DHT22;10245;51.344;6.620;2022-08-19T02:49:18;20.80;91.80
20171;DHT22;10245;51.344;6.620;2022-08-19T02:51:44;20.70;92.40
20171;DHT22;10245;51.344;6.620;2022-08-19T02:54:11;20.80;92.30
20171;DHT22;10245;51.344;6.620;2022-08-19T02:56:40;20.80;92.50
20171;DHT22;10245;51.344;6.620;2022-08-19T02:59:06;20.80;92.30
20171;DHT22;10245;51.344;6.620;2022-08-19T03:01:33;20.80;92.30
20171;DHT22;10245;51.344;6.620;2022-08-19T03:03:59;20.80;92.40
20171;DHT22;10245;51.344;6.620;2022-08-19T03:06:26;20.80;92.60
20171;DHT22;10245;51.344;6.620;2022-08-19T03:08:50;20.80;92.70
20171;DHT22;10245;51.344;6.620;2022-08-19T03:11:15;20.80;92.60
20171;DHT22;10245;51.344;6.620;2022-08-19T03:13:40;20.90;91.40
20171;DHT22;10245;51.344;6.620;2022-08-19T03:16:05;20.80;92.70
20171;DHT22;10245;51.344;6.620;2022-08-19T03:18:29;20.90;93.00
20171;DHT22;10245;51.344;6.620;2022-08-19T03:20:53;20.70;93.10
20171;DHT22;10245;51.344;6.620;2022-08-19T03:23:18;21.00;91.40
20171;DHT22;10245;51.344;6.620;2022-08-19T03:25:45;20.90;91.60
20171;DHT22;10245;51.344;6.620;2022-08-19T03:28:32;20.90;93.10
20171;DHT22;10245;51.344;6.620;2022-08-19T03:30:58;20.80;93.10
20171;DHT22;10245;51.344;6.620;2022-08-19T03:33:25;20.80;93.60
20171;DHT22;10245;51.344;6.620;2022-08-19T03:36:03;20.80;93.00
20171;DHT22;10245;51.344;6.620;2022-08-19T03:38:31;20.90;92.10
20171;DHT22;10245;51.344;6.620;2022-08-19T03:40:55;20.80;93.60
20171;DHT22;10245;51.344;6.620;2022-08-19T03:43:18;20.90;91.90
20171;DHT22;10245;51.344;6.620;2022-08-19T03:45:43;20.80;93.60
20171;DHT22;10245;51.344;6.620;2022-08-19T03:48:06;20.70;93.90
20171;DHT22;10245;51.344;6.620;2022-08-19T03:50:30;20.70;93.60
20171;DHT22;10245;51.344;6.620;2022-08-19T03:52:54;20.80;93.80
20171;DHT22;10245;51.344;6.620;2022-08-19T03:55:20;20.70;93.50
20171;DHT22;10245;51.344;6.620;2022-08-19T03:57:44;20.70;93.80
20171;DHT22;10245;51.344;6.620;2022-08-19T04:00:11;20.80;95.00
20171;DHT22;10245;51.344;6.620;2022-08-19T04:02:35;20.70;94.90
20171;DHT22;10245;51.344;6.620;2022-08-19T04:04:59;20.60;94.80
20171;DHT22;10245;51.344;6.620;2022-08-19T04:07:23;20.60;94.40
20171;DHT22;10245;51.344;6.620;2022-08-19T04:09:48;20.70;94.00
20171;DHT22;10245;51.344;6.620;2022-08-19T04:12:15;20.60;93.80
20171;DHT22;10245;51.344;6.620;2022-08-19T04:14:39;20.60;94.10
20171;DHT22;10245;51.344;6.620;2022-08-19T04:17:03;20.70;93.90
20171;DHT22;10245;51.344;6.620;2022-08-19T04:19:30;20.70;93.50
20171;DHT22;10245;51.344;6.620;2022-08-19T04:21:54;20.80;93.40
20171;DHT22;10245;51.344;6.620;2022-08-19T04:24:20;20.50;94.40
20171;DHT22;10245;51.344;6.620;2022-08-19T04:26:45;20.50;94.20
20171;DHT22;10245;51.344;6.620;2022-08-19T04:29:13;20.50;95.00
20171;DHT22;10245;51.344;6.620;2022-08-19T04:31:40;20.60;94.70
20171;DHT22;10245;51.344;6.620;2022-08-19T04:34:06;20.70;94.40
20171;DHT22;10245;51.344;6.620;2022-08-19T04:36:34;20.60;94.50
20171;DHT22;10245;51.344;6.620;2022-08-19T04:39:00;20.60;94.40
20171;DHT22;10245;51.344;6.620;2022-08-19T04:41:26;20.50;94.60
20171;DHT22;10245;51.344;6.620;2022-08-19T04:44:07;20.40;94.90
20171;DHT22;10245;51.344;6.620;2022-08-19T04:46:33;20.50;95.30
20171;DHT22;10245;51.344;6.620;2022-08-19T04:49:12;20.50;95.10
20171;DHT22;10245;51.344;6.620;2022-08-19T04:51:36;20.50;94.80
20171;DHT22;10245;51.344;6.620;2022-08-19T04:54:03;20.50;95.10
20171;DHT22;10245;51.344;6.620;2022-08-19T04:56:27;20.50;95.00
20171;DHT22;10245;51.344;6.620;2022-08-19T04:58:51;20.50;95.20
20171;DHT22;10245;51.344;6.620;2022-08-19T05:01:18;20.60;95.60
20171;DHT22;10245;51.344;6.620;2022-08-19T05:03:45;20.50;95.50
20171;DHT22;10245;51.344;6.620;2022-08-19T05:06:12;20.60;95.10
20171;DHT22;10245;51.344;6.620;2022-08-19T05:08:39;20.60;95.10
20171;DHT22;10245;51.344;6.620;2022-08-19T05:11:09;20.50;95.60
20171;DHT22;10245;51.344;6.620;2022-08-19T05:13:35;20.60;96.00
20171;DHT22;10245;51.344;6.620;2022-08-19T05:16:03;20.60;96.20
20171;DHT22;10245;51.344;6.620;2022-08-19T05:18:27;20.70;96.10
20171;DHT22;10245;51.344;6.620;2022-08-19T05:21:11;20.50;95.90
20171;DHT22;10245;51.344;6.620;2022-08-19T05:23:54;20.60;96.10
20171;DHT22;10245;51.344;6.620;2022-08-19T05:26:17;20.60;96.40
20171;DHT22;10245;51.344;6.620;2022-08-19T05:28:41;20.70;95.80
20171;DHT22;10245;51.344;6.620;2022-08-19T05:31:05;20.80;95.40
20171;DHT22;10245;51.344;6.620;2022-08-19T05:33:30;21.00;94.80
20171;DHT22;10245;51.344;6.620;2022-08-19T05:35:53;21.00;95.40
20171;DHT22;10245;51.344;6.620;2022-08-19T05:38:19;21.20;93.40
20171;DHT22;10245;51.344;6.620;2022-08-19T05:40:43;21.20;93.90
20171;DHT22;10245;51.344;6.620;2022-08-19T05:43:08;21.30;94.30
20171;DHT22;10245;51.344;6.620;2022-08-19T05:45:32;21.40;92.60
20171;DHT22;10245;51.344;6.620;2022-08-19T05:47:55;21.50;93.20
20171;DHT22;10245;51.344;6.620;2022-08-19T05:50:20;21.60;93.40
20171;DHT22;10245;51.344;6.620;2022-08-19T05:52:44;21.70;93.40
20171;DHT22;10245;51.344;6.620;2022-08-19T05:55:13;21.70;92.70
20171;DHT22;10245;51.344;6.620;2022-08-19T05:57:37;21.80;92.60
20171;DHT22;10245;51.344;6.620;2022-08-19T06:00:00;21.80;92.50
20171;DHT22;10245;51.344;6.620;2022-08-19T06:02:32;21.80;92.90
20171;DHT22;10245;51.344;6.620;2022-08-19T06:04:57;22.10;91.80
20171;DHT22;10245;51.344;6.620;2022-08-19T06:07:21;22.10;92.10
20171;DHT22;10245;51.344;6.620;2022-08-19T06:09:45;22.10;92.50
20171;DHT22;10245;51.344;6.620;2022-08-19T06:12:23;22.10;92.00
20171;DHT22;10245;51.344;6.620;2022-08-19T06:14:50;22.40;90.90
20171;DHT22;10245;51.344;6.620;2022-08-19T06:17:22;22.50;91.30
20171;DHT22;10245;51.344;6.620;2022-08-19T06:19:47;22.50;90.70
20171;DHT22;10245;51.344;6.620;2022-08-19T06:22:11;22.60;90.80
20171;DHT22;10245;51.344;6.620;2022-08-19T06:24:35;22.50;90.60
20171;DHT22;10245;51.344;6.620;2022-08-19T06:27:00;22.50;91.10
20171;DHT22;10245;51.344;6.620;2022-08-19T06:29:26;22.40;91.80
20171;DHT22;10245;51.344;6.620;2022-08-19T06:31:53;22.50;91.70
20171;DHT22;10245;51.344;6.620;2022-08-19T06:34:18;22.90;90.20
20171;DHT22;10245;51.344;6.620;2022-08-19T06:36:45;22.90;90.30
20171;DHT22;10245;51.344;6.620;2022-08-19T06:39:12;23.00;90.00
20171;DHT22;10245;51.344;6.620;2022-08-19T06:41:42;23.10;89.90
20171;DHT22;10245;51.344;6.620;2022-08-19T06:44:13;23.10;89.50
20171;DHT22;10245;51.344;6.620;2022-08-19T06:46:40;23.10;89.40
20171;DHT22;10245;51.344;6.620;2022-08-19T06:49:07;23.30;88.30
20171;DHT22;10245;51.344;6.620;2022-08-19T06:51:32;23.30;88.80
20171;DHT22;10245;51.344;6.620;2022-08-19T06:54:03;23.40;87.80
20171;DHT22;10245;51.344;6.620;2022-08-19T06:56:40;23.50;88.10
20171;DHT22;10245;51.344;6.620;2022-08-19T06:59:07;23.50;87.90
20171;DHT22;10245;51.344;6.620;2022-08-19T07:01:35;23.70;86.00
20171;DHT22;10245;51.344;6.620;2022-08-19T07:04:00;23.60;85.50
20171;DHT22;10245;51.344;6.620;2022-08-19T07:06:24;23.80;85.00
20171;DHT22;10245;51.344;6.620;2022-08-19T07:09:07;23.90;85.30
20171;DHT22;10245;51.344;6.620;2022-08-19T07:11:33;23.70;85.40
20171;DHT22;10245;51.344;6.620;2022-08-19T07:13:57;23.70;85.40
20171;DHT22;10245;51.344;6.620;2022-08-19T07:16:20;23.90;85.40
20171;DHT22;10245;51.344;6.620;2022-08-19T07:18:51;23.70;85.90
20171;DHT22;10245;51.344;6.620;2022-08-19T07:21:18;23.70;86.00
20171;DHT22;10245;51.344;6.620;2022-08-19T07:23:44;23.80;86.20
20171;DHT22;10245;51.344;6.620;2022-08-19T07:26:10;23.90;86.00
20171;DHT22;10245;51.344;6.620;2022-08-19T07:28:35;23.90;86.00
20171;DHT22;10245;51.344;6.620;2022-08-19T07:31:14;23.90;85.80
20171;DHT22;10245;51.344;6.620;2022-08-19T07:33:45;24.10;85.80
20171;DHT22;10245;51.344;6.620;2022-08-19T07:36:20;24.20;85.20
20171;DHT22;10245;51.344;6.620;2022-08-19T07:38:49;24.10;85.40
20171;DHT22;10245;51.344;6.620;2022-08-19T07:41:17;24.20;84.40
20171;DHT22;10245;51.344;6.620;2022-08-19T07:43:42;24.00;87.00
20171;DHT22;10245;51.344;6.620;2022-08-19T07:46:06;24.00;85.90
20171;DHT22;10245;51.344;6.620;2022-08-19T07:48:32;24.20;85.50
20171;DHT22;10245;51.344;6.620;2022-08-19T07:51:01;24.30;86.50
20171;DHT22;10245;51.344;6.620;2022-08-19T07:53:32;24.30;85.40
20171;DHT22;10245;51.344;6.620;2022-08-19T07:56:01;24.50;85.60
20171;DHT22;10245;51.344;6.620;2022-08-19T07:58:26;24.50;85.90
20171;DHT22;10245;51.344;6.620;2022-08-19T08:00:50;24.50;83.70
20171;DHT22;10245;51.344;6.620;2022-08-19T08:03:17;24.20;83.50
20171;DHT22;10245;51.344;6.620;2022-08-19T08:05:42;24.40;83.40
20171;DHT22;10245;51.344;6.620;2022-08-19T08:08:24;24.40;83.90
20171;DHT22;10245;51.344;6.620;2022-08-19T08:11:11;24.10;83.90
20171;DHT22;10245;51.344;6.620;2022-08-19T08:13:36;23.90;85.40
20171;DHT22;10245;51.344;6.620;2022-08-19T08:16:25;23.90;85.20
20171;DHT22;10245;51.344;6.620;2022-08-19T08:18:53;23.70;86.50
20171;DHT22;10245;51.344;6.620;2022-08-19T08:21:17;24.00;85.60
20171;DHT22;10245;51.344;6.620;2022-08-19T08:23:40;23.90;86.10
20171;DHT22;10245;51.344;6.620;2022-08-19T08:26:05;24.30;85.90
20171;DHT22;10245;51.344;6.620;2022-08-19T08:28:30;24.20;84.20
20171;DHT22;10245;51.344;6.620;2022-08-19T08:30:54;24.20;83.90
20171;DHT22;10245;51.344;6.620;2022-08-19T08:33:20;24.40;83.10
20171;DHT22;10245;51.344;6.620;2022-08-19T08:35:56;24.30;81.90
20171;DHT22;10245;51.344;6.620;2022-08-19T08:38:19;24.60;84.20
20171;DHT22;10245;51.344;6.620;2022-08-19T08:40:45;24.90;82.80
20171;DHT22;10245;51.344;6.620;2022-08-19T08:43:21;25.20;82.40
20171;DHT22;10245;51.344;6.620;2022-08-19T08:45:59;24.80;79.80
20171;DHT22;10245;51.344;6.620;2022-08-19T08:48:35;24.80;80.10
20171;DHT22;10245;51.344;6.620;2022-08-19T08:51:04;24.80;79.30
20171;DHT22;10245;51.344;6.620;2022-08-19T08:53:31;24.80;78.70
20171;DHT22;10245;51.344;6.620;2022-08-19T08:56:04;24.70;79.60
20171;DHT22;10245;51.344;6.620;2022-08-19T08:58:47;24.80;79.90
20171;DHT22;10245;51.344;6.620;2022-08-19T09:01:17;25.20;79.70
20171;DHT22;10245;51.344;6.620;2022-08-19T09:03:42;25.20;79.30
20171;DHT22;10245;51.344;6.620;2022-08-19T09:06:12;25.50;79.30
20171;DHT22;10245;51.344;6.620;2022-08-19T09:08:45;25.50;78.50
20171;DHT22;10245;51.344;6.620;2022-08-19T09:11:25;25.40;75.40
20171;DHT22;10245;51.344;6.620;2022-08-19T09:14:12;25.20;76.80
20171;DHT22;10245;51.344;6.620;2022-08-19T09:17:06;25.20;77.60
20171;DHT22;10245;51.344;6.620;2022-08-19T09:19:30;25.20;76.90
20171;DHT22;10245;51.344;6.620;2022-08-19T09:21:54;25.20;76.90
20171;DHT22;10245;51.344;6.620;2022-08-19T09:24:18;25.40;78.60
20171;DHT22;10245;51.344;6.620;2022-08-19T09:26:42;25.10;77.90
20171;DHT22;10245;51.344;6.620;2022-08-19T09:29:14;25.30;77.00
20171;DHT22;10245;51.344;6.620;2022-08-19T09:31:39;25.40;76.60
20171;DHT22;10245;51.344;6.620;2022-08-19T09:34:04;25.50;76.30
20171;DHT22;10245;51.344;6.620;2022-08-19T09:36:41;25.60;76.90
20171;DHT22;10245;51.344;6.620;2022-08-19T09:39:06;25.70;75.40
20171;DHT22;10245;51.344;6.620;2022-08-19T09:41:37;25.70;73.90
20171;DHT22;10245;51.344;6.620;2022-08-19T09:44:01;25.60;74.70
20171;DHT22;10245;51.344;6.620;2022-08-19T09:46:28;25.60;74.90
20171;DHT22;10245;51.344;6.620;2022-08-19T09:48:53;25.80;74.30
20171;DHT22;10245;51.344;6.620;2022-08-19T09:51:26;25.90;73.40
20171;DHT22;10245;51.344;6.620;2022-08-19T09:53:52;25.90;72.90
20171;DHT22;10245;51.344;6.620;2022-08-19T09:56:18;25.80;72.30
20171;DHT22;10245;51.344;6.620;2022-08-19T09:58:42;25.80;72.90
20171;DHT22;10245;51.344;6.620;2022-08-19T10:01:07;25.90;74.50
20171;DHT22;10245;51.344;6.620;2022-08-19T10:03:33;26.00;73.70
20171;DHT22;10245;51.344;6.620;2022-08-19T10:05:59;26.00;74.80
20171;DHT22;10245;51.344;6.620;2022-08-19T10:08:27;26.00;74.60
20171;DHT22;10245;51.344;6.620;2022-08-19T10:10:53;26.00;74.40
20171;DHT22;10245;51.344;6.620;2022-08-19T10:13:21;26.10;72.80
20171;DHT22;10245;51.344;6.620;2022-08-19T10:15:46;26.00;73.80
20171;DHT22;10245;51.344;6.620;2022-08-19T10:18:12;26.10;74.50
20171;DHT22;10245;51.344;6.620;2022-08-19T10:20:36;26.10;73.20
20171;DHT22;10245;51.344;6.620;2022-08-19T10:22:59;26.10;74.70
20171;DHT22;10245;51.344;6.620;2022-08-19T10:25:27;26.00;74.40
20171;DHT22;10245;51.344;6.620;2022-08-19T10:27:51;26.20;71.70
20171;DHT22;10245;51.344;6.620;2022-08-19T10:30:17;26.30;72.90
20171;DHT22;10245;51.344;6.620;2022-08-19T10:32:41;26.40;70.50
20171;DHT22;10245;51.344;6.620;2022-08-19T10:35:07;26.50;71.30
20171;DHT22;10245;51.344;6.620;2022-08-19T10:37:31;26.60;70.10
20171;DHT22;10245;51.344;6.620;2022-08-19T10:39:56;26.50;69.20
20171;DHT22;10245;51.344;6.620;2022-08-19T10:42:21;26.60;70.20
20171;DHT22;10245;51.344;6.620;2022-08-19T10:44:48;26.50;69.60
20171;DHT22;10245;51.344;6.620;2022-08-19T10:47:13;26.30;70.50
20171;DHT22;10245;51.344;6.620;2022-08-19T10:49:48;26.10;71.50
20171;DHT22;10245;51.344;6.620;2022-08-19T10:52:32;26.10;70.70
20171;DHT22;10245;51.344;6.620;2022-08-19T10:55:00;26.10;72.10
20171;DHT22;10245;51.344;6.620;2022-08-19T10:57:42;26.10;72.30
20171;DHT22;10245;51.344;6.620;2022-08-19T11:00:24;26.10;70.80
20171;DHT22;10245;51.344;6.620;2022-08-19T11:02:48;26.50;67.20
20171;DHT22;10245;51.344;6.620;2022-08-19T11:05:12;26.30;70.80
20171;DHT22;10245;51.344;6.620;2022-08-19T11:07:37;26.30;69.70
20171;DHT22;10245;51.344;6.620;2022-08-19T11:10:01;26.50;68.30
20171;DHT22;10245;51.344;6.620;2022-08-19T11:12:25;26.70;66.20
20171;DHT22;10245;51.344;6.620;2022-08-19T11:14:51;26.50;66.00
20171;DHT22;10245;51.344;6.620;2022-08-19T11:17:15;26.90;69.60
20171;DHT22;10245;51.344;6.620;2022-08-19T11:19:39;27.10;66.50
20171;DHT22;10245;51.344;6.620;2022-08-19T11:22:06;27.10;68.80
20171;DHT22;10245;51.344;6.620;2022-08-19T11:24:31;26.90;67.40
20171;DHT22;10245;51.344;6.620;2022-08-19T11:27:01;26.70;69.10
20171;DHT22;10245;51.344;6.620;2022-08-19T11:29:26;26.60;66.90
20171;DHT22;10245;51.344;6.620;2022-08-19T11:31:52;26.70;67.10
20171;DHT22;10245;51.344;6.620;2022-08-19T11:34:19;26.40;67.40
20171;DHT22;10245;51.344;6.620;2022-08-19T11:36:46;26.50;65.90
20171;DHT22;10245;51.344;6.620;2022-08-19T11:39:12;26.50;64.50
20171;DHT22;10245;51.344;6.620;2022-08-19T11:41:38;26.70;62.70
20171;DHT22;10245;51.344;6.620;2022-08-19T11:44:02;26.60;64.60
20171;DHT22;10245;51.344;6.620;2022-08-19T11:46:27;26.90;63.70
20171;DHT22;10245;51.344;6.620;2022-08-19T11:48:52;26.80;66.80
20171;DHT22;10245;51.344;6.620;2022-08-19T11:51:18;26.60;67.40
20171;DHT22;10245;51.344;6.620;2022-08-19T11:53:43;26.50;64.30
20171;DHT22;10245;51.344;6.620;2022-08-19T11:56:08;26.60;65.70
20171;DHT22;10245;51.344;6.620;2022-08-19T11:58:33;26.60;63.90
20171;DHT22;10245;51.344;6.620;2022-08-19T12:00:57;26.80;64.90
20171;DHT22;10245;51.344;6.620;2022-08-19T12:03:21;26.60;63.60
20171;DHT22;10245;51.344;6.620;2022-08-19T12:05:47;26.40;62.20
20171;DHT22;10245;51.344;6.620;2022-08-19T12:08:11;26.60;61.50
20171;DHT22;10245;51.344;6.620;2022-08-19T12:10:36;26.50;60.50
20171;DHT22;10245;51.344;6.620;2022-08-19T12:13:00;26.70;60.70
20171;DHT22;10245;51.344;6.620;2022-08-19T12:15:24;27.00;60.90
20171;DHT22;10245;51.344;6.620;2022-08-19T12:17:58;27.20;60.50
20171;DHT22;10245;51.344;6.620;2022-08-19T12:20:22;27.40;61.50
20171;DHT22;10245;51.344;6.620;2022-08-19T12:22:49;27.70;61.00
20171;DHT22;10245;51.344;6.620;2022-08-19T12:25:13;27.60;60.40
20171;DHT22;10245;51.344;6.620;2022-08-19T12:27:39;27.50;60.60
20171;DHT22;10245;51.344;6.620;2022-08-19T12:30:12;27.70;61.50
20171;DHT22;10245;51.344;6.620;2022-08-19T12:32:37;27.70;60.90
20171;DHT22;10245;51.344;6.620;2022-08-19T12:35:01;27.60;58.50
20171;DHT22;10245;51.344;6.620;2022-08-19T12:37:25;27.40;57.00
20171;DHT22;10245;51.344;6.620;2022-08-19T12:39:50;27.50;56.50
20171;DHT22;10245;51.344;6.620;2022-08-19T12:42:14;27.60;54.80
20171;DHT22;10245;51.344;6.620;2022-08-19T12:44:41;27.60;59.70
20171;DHT22;10245;51.344;6.620;2022-08-19T12:47:06;27.60;56.00
20171;DHT22;10245;51.344;6.620;2022-08-19T12:49:31;27.50;56.90
20171;DHT22;10245;51.344;6.620;2022-08-19T12:52:15;27.50;56.60
20171;DHT22;10245;51.344;6.620;2022-08-19T12:54:44;27.50;56.50
20171;DHT22;10245;51.344;6.620;2022-08-19T12:57:10;27.70;56.30
20171;DHT22;10245;51.344;6.620;2022-08-19T12:59:34;27.80;55.80
20171;DHT22;10245;51.344;6.620;2022-08-19T13:01:58;27.80;56.20
20171;DHT22;10245;51.344;6.620;2022-08-19T13:04:22;27.60;56.90
20171;DHT22;10245;51.344;6.620;2022-08-19T13:06:45;27.70;55.80
20171;DHT22;10245;51.344;6.620;2022-08-19T13:09:09;27.70;58.10
20171;DHT22;10245;51.344;6.620;2022-08-19T13:11:33;27.70;55.70
20171;DHT22;10245;51.344;6.620;2022-08-19T13:13:59;27.70;57.60
20171;DHT22;10245;51.344;6.620;2022-08-19T13:16:24;27.60;56.20
20171;DHT22;10245;51.344;6.620;2022-08-19T13:18:49;27.70;57.20
20171;DHT22;10245;51.344;6.620;2022-08-19T13:21:14;27.90;55.80
20171;DHT22;10245;51.344;6.620;2022-08-19T13:23:37;28.00;55.00
20171;DHT22;10245;51.344;6.620;2022-08-19T13:26:04;28.10;57.30
20171;DHT22;10245;51.344;6.620;2022-08-19T13:28:28;28.00;56.70
20171;DHT22;10245;51.344;6.620;2022-08-19T13:31:16;28.00;54.70
20171;DHT22;10245;51.344;6.620;2022-08-19T13:33:57;28.20;54.60
20171;DHT22;10245;51.344;6.620;2022-08-19T13:36:21;28.50;55.60
20171;DHT22;10245;51.344;6.620;2022-08-19T13:38:45;28.40;55.30
20171;DHT22;10245;51.344;6.620;2022-08-19T13:41:08;28.30;55.20
20171;DHT22;10245;51.344;6.620;2022-08-19T13:43:35;28.10;55.30
20171;DHT22;10245;51.344;6.620;2022-08-19T13:46:00;28.10;55.00
20171;DHT22;10245;51.344;6.620;2022-08-19T13:48:33;28.30;55.70
20171;DHT22;10245;51.344;6.620;2022-08-19T13:50:56;28.30;56.60
20171;DHT22;10245;51.344;6.620;2022-08-19T13:53:20;28.20;56.30
20171;DHT22;10245;51.344;6.620;2022-08-19T13:55:44;28.40;55.00
20171;DHT22;10245;51.344;6.620;2022-08-19T13:58:09;28.20;55.50
20171;DHT22;10245;51.344;6.620;2022-08-19T14:00:37;28.00;57.60
20171;DHT22;10245;51.344;6.620;2022-08-19T14:03:02;27.60;57.80
20171;DHT22;10245;51.344;6.620;2022-08-19T14:05:33;27.50;58.00
20171;DHT22;10245;51.344;6.620;2022-08-19T14:07:58;27.70;59.00
20171;DHT22;10245;51.344;6.620;2022-08-19T14:10:23;27.60;58.00
20171;DHT22;10245;51.344;6.620;2022-08-19T14:12:51;27.70;57.30
20171;DHT22;10245;51.344;6.620;2022-08-19T14:15:17;27.80;57.00
20171;DHT22;10245;51.344;6.620;2022-08-19T14:17:44;28.00;58.00
20171;DHT22;10245;51.344;6.620;2022-08-19T14:20:11;28.10;58.00
20171;DHT22;10245;51.344;6.620;2022-08-19T14:22:41;28.20;57.40
20171;DHT22;10245;51.344;6.620;2022-08-19T14:25:08;28.00;54.80
20171;DHT22;10245;51.344;6.620;2022-08-19T14:27:34;27.70;55.80
20171;DHT22;10245;51.344;6.620;2022-08-19T14:29:58;27.70;55.70
20171;DHT22;10245;51.344;6.620;2022-08-19T14:32:22;27.90;55.10
20171;DHT22;10245;51.344;6.620;2022-08-19T14:34:48;27.80;54.10
20171;DHT22;10245;51.344;6.620;2022-08-19T14:37:13;27.60;54.20
20171;DHT22;10245;51.344;6.620;2022-08-19T14:39:38;27.80;55.10
20171;DHT22;10245;51.344;6.620;2022-08-19T14:42:06;27.70;53.90
20171;DHT22;10245;51.344;6.620;2022-08-19T14:44:33;27.80;55.40
20171;DHT22;10245;51.344;6.620;2022-08-19T14:46:57;27.80;55.40
20171;DHT22;10245;51.344;6.620;2022-08-19T14:49:23;27.90;55.20
20171;DHT22;10245;51.344;6.620;2022-08-19T14:51:56;27.70;56.40
20171;DHT22;10245;51.344;6.620;2022-08-19T14:54:20;27.70;55.60
20171;DHT22;10245;51.344;6.620;2022-08-19T14:56:47;27.70;54.00
20171;DHT22;10245;51.344;6.620;2022-08-19T14:59:12;27.80;55.20
20171;DHT22;10245;51.344;6.620;2022-08-19T15:01:36;27.80;54.60
20171;DHT22;10245;51.344;6.620;2022-08-19T15:03:59;27.70;53.60
20171;DHT22;10245;51.344;6.620;2022-08-19T15:06:24;27.70;53.10
20171;DHT22;10245;51.344;6.620;2022-08-19T15:08:48;27.40;53.90
20171;DHT22;10245;51.344;6.620;2022-08-19T15:11:16;27.50;54.90
20171;DHT22;10245;51.344;6.620;2022-08-19T15:13:44;27.70;54.20
20171;DHT22;10245;51.344;6.620;2022-08-19T15:16:08;27.70;54.90
20171;DHT22;10245;51.344;6.620;2022-08-19T15:18:39;27.50;54.40
20171;DHT22;10245;51.344;6.620;2022-08-19T15:21:06;27.60;54.10
20171;DHT22;10245;51.344;6.620;2022-08-19T15:23:30;27.90;53.10
20171;DHT22;10245;51.344;6.620;2022-08-19T15:25:53;27.60;52.00
20171;DHT22;10245;51.344;6.620;2022-08-19T15:28:17;27.50;52.50